LEXJ Airport Information

Runway Information
Runway 11 Length 7612 ft width 148 ft
Elevation 11 ft Threshold 0 ft Heading 110
Runway 29 Length 7612 ft Width 148 ft
Elevation 12 ft Threshold 0 ft Heading 290
Airport Frequencies
Type APP Name APP Frequency 118.375 MHZ
Type GND Name GND Frequency 121.7 MHZ
Type TWR Name TWR Frequency 118.1 MHZ
Airport Navaids
Type NDB Name Santander Frequency 416 KHZ
Type VOR-DME Name Santander Frequency 115300 KHZ
Airport Weather Information & NOTAM
ADDS - METARS form results

(0544 UTC 07 March 2021)
Data provider http://aviationweather.gov/metar/data/
 
METAR text: LEXJ 070530Z 15002KT 9999 FEW029 OVC039 08/06 Q1022
Conditions at: LEXJ (SANTANDER/PARAYA, ES) observed 0530 UTC 07 March 2021
Temperature: 8.0°C (46°F)
Dewpoint: 6.0°C (43°F) [RH = 87%]
Pressure (altimeter): 30.18 inches Hg (1022.0 mb)
Winds: from the SSE (150 degrees) at 2 MPH (2 knots; 1.0 m/s)
Visibility: 6 or more miles (10+ km)
Ceiling: 3900 feet AGL
Clouds: few clouds at 2900 feet AGL
overcast cloud deck at 3900 feet AGL
Weather: no significant weather observed at this time

METAR text: LEXJ 070500Z VRB02KT 9999 FEW029 OVC042 09/06 Q1022
Conditions at: LEXJ (SANTANDER/PARAYA, ES) observed 0500 UTC 07 March 2021
Temperature: 9.0°C (48°F)
Dewpoint: 6.0°C (43°F) [RH = 81%]
Pressure (altimeter): 30.18 inches Hg (1022.0 mb)
Winds: variable direction winds at 2 MPH (2 knots; 1.0 m/s)
Visibility: 6 or more miles (10+ km)
Ceiling: 4200 feet AGL
Clouds: few clouds at 2900 feet AGL
overcast cloud deck at 4200 feet AGL
Weather: no significant weather observed at this time

Forecast for: LEXJ (SANTANDER/PARAYA, ES)
Text: TAF LEXJ 070200Z 0703/0803 VRB05KT 9999 SCT015 BKN030 TX12/0715Z TN05/0704Z
Forecast period: 0300 UTC 07 March 2021 to 0300 UTC 08 March 2021
Forecast type: FROM: standard forecast or significant change
Winds: variable direction winds at 6 MPH (5 knots; 2.6 m/s)
Visibility: 6 or more miles (10+ km)
Ceiling: 3000 feet AGL
Clouds: scattered clouds at 1500 feet AGL
broken clouds at 3000 feet AGL
Weather: no significant weather forecast for this period
Text: TEMPO 0711/0719 04010KT
Forecast period: 1100 to 1900 UTC 07 March 2021
Forecast type: TEMPORARY: The following changes expected for less than half the time period
Winds: from the NE (40 degrees) at 12 MPH (10 knots; 5.1 m/s)
Visibility: missing
Ceiling: unknown
Clouds: missing
Weather: no significant weather forecast for this period
Text: PROB30
Forecast period: 1800 to 2100 UTC 07 March 2021
Forecast type: TEMPORARY: The following changes expected for less than half the time period
Visibility: missing
Ceiling: unknown
Clouds: missing
Weather: RA  (moderate rain)